Time;durP1;ratioP1;P1;durP2;ratioP2;P2;SDS_P1;SDS_P2;PMS_P1;PMS_P2;Temp;Humidity;BMP_temperature;BMP_pressure;BME280_temperature;BME280_humidity;BME280_pressure;Samples;Min_cycle;Max_cycle;Signal;HPM_P1;HPM_P2
2023/05/16 00:01:57;;;;;;;6.38;2.00;;;21.00;84.40;;;;;;5052198;28;20060;-60
2023/05/16 00:04:23;;;;;;;9.02;2.30;;;20.80;84.30;;;;;;5066559;28;20045;-61
2023/05/16 00:06:49;;;;;;;7.97;2.30;;;21.20;84.60;;;;;;5054873;28;20048;-61
2023/05/16 00:09:15;;;;;;;9.23;2.58;;;21.10;84.50;;;;;;5052293;28;20546;-60
2023/05/16 00:11:40;;;;;;;8.05;1.98;;;21.00;81.50;;;;;;5051381;28;20057;-62
2023/05/16 00:14:06;;;;;;;9.55;2.35;;;21.00;84.30;;;;;;5063905;28;20386;-61
2023/05/16 00:16:32;;;;;;;9.48;2.50;;;21.00;84.30;;;;;;5068647;28;20101;-61
2023/05/16 00:18:59;;;;;;;7.70;2.30;;;;;;;;;;5070837;28;20033;-64
2023/05/16 00:21:25;;;;;;;8.95;1.88;;;21.10;84.40;;;;;;5059948;28;20098;-62
2023/05/16 00:23:51;;;;;;;5.82;1.95;;;;;;;;;;5067782;28;20041;-62
2023/05/16 00:26:18;;;;;;;5.70;1.83;;;20.70;84.00;;;;;;5064965;28;20044;-64
2023/05/16 00:28:43;;;;;;;8.32;1.80;;;21.00;84.30;;;;;;5064162;28;20510;-63
2023/05/16 00:31:09;;;;;;;7.07;1.80;;;20.80;84.10;;;;;;5070233;28;20049;-61
2023/05/16 00:33:35;;;;;;;7.85;2.47;;;20.90;84.20;;;;;;5072022;28;20040;-60
2023/05/16 00:36:00;;;;;;;7.65;1.95;;;20.90;84.30;;;;;;5070640;28;20037;-61
2023/05/16 00:38:27;;;;;;;8.20;2.10;;;;;;;;;;5062882;28;20072;-62
2023/05/16 00:40:53;;;;;;;8.18;2.10;;;;;;;;;;5062644;28;20048;-60
2023/05/16 00:43:19;;;;;;;9.10;2.22;;;20.80;84.10;;;;;;5075586;28;20053;-61
2023/05/16 00:45:44;;;;;;;10.63;2.28;;;21.00;84.20;;;;;;5073106;28;20439;-61
2023/05/16 00:48:13;;;;;;;7.00;1.70;;;20.90;84.10;;;;;;5058679;28;20041;-60
2023/05/16 00:50:38;;;;;;;5.72;1.83;;;21.00;84.10;;;;;;5070204;28;20044;-62
2023/05/16 00:53:05;;;;;;;8.02;1.85;;;;;;;;;;5074901;28;20636;-63
2023/05/16 00:55:31;;;;;;;7.75;2.22;;;20.80;81.50;;;;;;5075698;28;20040;-60
2023/05/16 00:57:57;;;;;;;6.78;1.98;;;21.00;84.00;;;;;;5073427;28;20045;-66
2023/05/16 01:00:24;;;;;;;8.52;2.10;;;;;;;;;;5074416;28;20045;-66
2023/05/16 01:02:52;;;;;;;6.93;2.00;;;20.90;82.90;;;;;;5074549;28;20095;-66
2023/05/16 01:05:18;;;;;;;7.78;1.55;;;21.00;80.20;;;;;;5074626;28;20051;-66
2023/05/16 01:07:44;;;;;;;10.05;2.13;;;20.80;83.80;;;;;;5073181;28;20055;-66
2023/05/16 01:10:10;;;;;;;7.45;1.65;;;;;;;;;;5063547;28;20123;-66
2023/05/16 01:13:00;;;;;;;6.03;1.88;;;20.90;83.70;;;;;;5056146;28;20516;-65
2023/05/16 01:15:34;;;;;;;6.13;2.08;;;20.60;83.50;;;;;;5073653;28;20048;-64
2023/05/16 01:18:26;;;;;;;7.50;2.50;;;20.80;83.70;;;;;;5074003;28;20045;-60
2023/05/16 01:21:02;;;;;;;7.35;1.95;;;20.70;83.60;;;;;;5071499;28;20052;-60
2023/05/16 01:23:28;;;;;;;6.95;1.73;;;;;;;;;;5074564;28;20405;-61
2023/05/16 01:26:10;;;;;;;6.72;1.98;;;20.80;83.50;;;;;;5068191;28;20036;-62
2023/05/16 01:28:36;;;;;;;6.60;2.00;;;;;;;;;;5063588;28;20111;-65
2023/05/16 01:31:02;;;;;;;9.40;2.30;;;20.70;83.40;;;;;;5065659;28;20049;-61
2023/05/16 01:33:28;;;;;;;7.13;1.80;;;20.70;83.40;;;;;;5074317;28;20052;-62
2023/05/16 01:36:20;;;;;;;8.93;2.05;;;20.80;81.20;;;;;;5073249;28;20047;-62
2023/05/16 01:39:04;;;;;;;6.07;1.50;;;20.90;83.40;;;;;;5026867;28;20132;-61
2023/05/16 01:41:40;;;;;;;7.22;2.00;;;20.50;83.20;;;;;;5064631;28;20045;-61
2023/05/16 01:44:10;;;;;;;11.00;2.53;;;20.70;83.30;;;;;;5053581;28;20067;-65
2023/05/16 01:46:37;;;;;;;7.20;1.75;;;20.70;83.30;;;;;;5054877;28;20059;-62
2023/05/16 01:49:16;;;;;;;5.75;1.60;;;20.60;83.20;;;;;;5054176;28;20053;-64
2023/05/16 01:51:44;;;;;;;8.60;2.10;;;20.60;83.20;;;;;;5057017;28;20044;-63
2023/05/16 01:54:11;;;;;;;6.60;1.48;;;20.60;82.20;;;;;;5057180;28;20040;-64
2023/05/16 01:56:36;;;;;;;7.95;1.85;;;20.40;83.10;;;;;;5073550;28;20066;-61
2023/05/16 01:59:03;;;;;;;5.68;1.38;;;20.40;83.00;;;;;;5073837;28;20040;-64
2023/05/16 02:01:29;;;;;;;7.18;1.95;;;20.40;83.00;;;;;;5073495;28;20509;-63
2023/05/16 02:03:55;;;;;;;4.78;1.73;;;20.40;79.50;;;;;;5059165;28;20061;-61
2023/05/16 02:06:21;;;;;;;6.07;1.60;;;20.30;82.80;;;;;;5055417;28;20056;-61
2023/05/16 02:08:47;;;;;;;7.15;1.92;;;20.50;82.90;;;;;;5073379;28;20068;-61
2023/05/16 02:11:14;;;;;;;6.18;2.08;;;;;;;;;;5073235;28;20064;-62
2023/05/16 02:13:39;;;;;;;7.10;2.10;;;20.40;81.40;;;;;;5068390;28;20045;-60
2023/05/16 02:16:05;;;;;;;7.10;1.65;;;;;;;;;;5054163;28;20063;-63
2023/05/16 02:18:31;;;;;;;6.30;1.58;;;20.50;82.90;;;;;;5054467;28;20402;-60
2023/05/16 02:20:57;;;;;;;7.65;2.00;;;;;;;;;;5060599;28;20037;-66
2023/05/16 02:23:23;;;;;;;5.93;1.92;;;;;;;;;;5057393;28;20047;-62
2023/05/16 02:25:49;;;;;;;6.70;1.80;;;20.50;82.80;;;;;;5054900;28;20041;-61
2023/05/16 02:28:15;;;;;;;6.20;1.73;;;20.10;82.50;;;;;;5061058;28;20051;-61
2023/05/16 02:30:41;;;;;;;8.23;1.80;;;20.40;82.70;;;;;;5073871;28;20490;-62
2023/05/16 02:33:06;;;;;;;4.45;1.80;;;20.50;82.10;;;;;;5073087;28;20036;-61
2023/05/16 02:35:32;;;;;;;6.03;1.70;;;20.30;80.10;;;;;;5072281;28;20132;-61
2023/05/16 02:37:58;;;;;;;6.10;1.40;;;20.10;82.40;;;;;;5071039;28;20131;-61
2023/05/16 02:40:23;;;;;;;4.80;1.48;;;20.50;82.60;;;;;;5066386;28;20167;-60
2023/05/16 02:42:49;;;;;;;6.28;1.73;;;20.40;82.50;;;;;;5064825;28;20048;-61
2023/05/16 02:45:15;;;;;;;6.95;1.60;;;20.40;82.50;;;;;;5065505;28;20510;-61
2023/05/16 02:47:41;;;;;;;7.30;1.52;;;;;;;;;;5060078;28;20041;-61
2023/05/16 02:50:07;;;;;;;5.50;1.88;;;;;;;;;;5072450;28;20182;-61
2023/05/16 02:52:33;;;;;;;6.55;1.40;;;20.30;82.30;;;;;;5055396;28;20052;-60
2023/05/16 02:54:59;;;;;;;6.97;1.50;;;;;;;;;;5053989;28;20041;-62
2023/05/16 02:57:25;;;;;;;6.32;1.58;;;;;;;;;;5064996;28;20047;-61
2023/05/16 02:59:51;;;;;;;5.22;2.00;;;20.30;82.20;;;;;;5071979;28;20056;-61
2023/05/16 03:02:17;;;;;;;6.97;1.25;;;;;;;;;;5057940;28;20084;-63
2023/05/16 03:04:43;;;;;;;5.38;1.20;;;;;;;;;;5055194;28;20056;-61
2023/05/16 03:07:09;;;;;;;6.78;1.65;;;20.00;82.00;;;;;;5065921;28;20059;-60
2023/05/16 03:09:35;;;;;;;6.45;1.48;;;20.30;82.20;;;;;;5057494;28;20120;-61
2023/05/16 03:12:01;;;;;;;6.72;1.90;;;;;;;;;;5055904;28;20037;-61
2023/05/16 03:14:26;;;;;;;7.07;1.83;;;20.10;82.10;;;;;;5061447;28;20047;-60
2023/05/16 03:16:53;;;;;;;6.50;1.77;;;;;;;;;;5072165;28;20049;-61
2023/05/16 03:19:19;;;;;;;8.00;1.60;;;;;;;;;;5065381;28;20071;-61
2023/05/16 03:21:45;;;;;;;5.90;1.60;;;;;;;;;;5057181;28;20458;-66
2023/05/16 03:24:11;;;;;;;7.00;1.92;;;20.00;81.90;;;;;;5056052;28;20079;-61
2023/05/16 03:26:36;;;;;;;6.50;1.60;;;20.20;82.10;;;;;;5064100;28;20091;-60
2023/05/16 03:29:02;;;;;;;5.20;1.55;;;20.10;82.10;;;;;;5066537;28;20045;-61
2023/05/16 03:31:32;;;;;;;5.43;1.33;;;20.20;81.40;;;;;;5070384;28;20052;-61
2023/05/16 03:33:58;;;;;;;6.97;1.70;;;;;;;;;;5056543;28;20127;-60
2023/05/16 03:36:24;;;;;;;7.30;1.75;;;20.10;79.40;;;;;;5072356;28;20048;-62
2023/05/16 03:38:50;;;;;;;4.97;1.48;;;20.10;82.00;;;;;;5069369;28;20060;-61
2023/05/16 03:41:16;;;;;;;7.18;1.75;;;;;;;;;;5071953;28;20079;-61
2023/05/16 03:43:42;;;;;;;6.82;1.45;;;;;;;;;;5072577;28;20266;-61
2023/05/16 03:46:08;;;;;;;5.63;1.35;;;20.00;81.90;;;;;;5072734;28;20367;-61
2023/05/16 03:48:34;;;;;;;4.85;1.60;;;;;;;;;;5061299;28;20182;-61
2023/05/16 03:51:00;;;;;;;3.80;1.40;;;;;;;;;;5052792;28;20109;-60
2023/05/16 03:53:26;;;;;;;6.85;1.80;;;19.80;81.70;;;;;;5067835;28;20048;-61
2023/05/16 03:55:51;;;;;;;4.65;1.30;;;20.00;81.80;;;;;;5072398;28;20044;-60
2023/05/16 03:58:17;;;;;;;5.70;1.42;;;20.00;81.80;;;;;;5070667;28;20141;-66
2023/05/16 04:00:45;;;;;;;5.35;1.80;;;20.40;82.00;;;;;;5068552;28;20045;-60
2023/05/16 04:03:10;;;;;;;4.70;1.58;;;20.00;81.70;;;;;;5072617;28;20045;-61
2023/05/16 04:05:36;;;;;;;7.30;1.33;;;;;;;;;;5054059;28;20148;-60
2023/05/16 04:08:02;;;;;;;5.47;1.60;;;20.00;81.70;;;;;;5052332;28;20059;-63
2023/05/16 04:10:28;;;;;;;6.88;1.50;;;20.20;81.80;;;;;;5062565;28;20119;-63
2023/05/16 04:12:54;;;;;;;6.15;1.35;;;20.20;81.80;;;;;;5070929;28;20063;-64
2023/05/16 04:15:20;;;;;;;9.35;1.75;;;20.20;81.80;;;;;;5072628;28;20052;-64
2023/05/16 04:17:46;;;;;;;5.13;1.10;;;20.20;81.50;;;;;;5071019;28;20045;-61
2023/05/16 04:20:12;;;;;;;5.50;1.63;;;19.90;81.50;;;;;;5070369;28;20979;-61
2023/05/16 04:22:37;;;;;;;6.15;1.60;;;20.30;81.70;;;;;;5053735;28;20052;-60
2023/05/16 04:25:03;;;;;;;6.40;1.55;;;20.20;80.10;;;;;;5052149;28;20399;-61
2023/05/16 04:27:30;;;;;;;4.18;1.30;;;20.00;81.50;;;;;;5054847;28;20406;-61
2023/05/16 04:29:56;;;;;;;4.82;1.50;;;20.00;79.10;;;;;;5072288;28;20053;-61
2023/05/16 04:32:22;;;;;;;6.03;1.35;;;20.20;81.60;;;;;;5071135;28;20092;-61
2023/05/16 04:34:48;;;;;;;9.05;1.65;;;20.10;81.70;;;;;;5072027;28;20059;-61
2023/05/16 04:37:14;;;;;;;5.95;1.40;;;20.20;81.70;;;;;;5071933;28;20056;-62
2023/05/16 04:39:41;;;;;;;6.00;1.75;;;;;;;;;;5054857;28;20180;-64
2023/05/16 04:42:07;;;;;;;6.55;1.70;;;20.20;81.50;;;;;;5058251;28;20516;-62
2023/05/16 04:44:33;;;;;;;3.78;1.25;;;20.30;81.50;;;;;;5055177;28;20116;-60
2023/05/16 04:46:59;;;;;;;6.00;2.13;;;20.30;80.90;;;;;;5055157;28;20488;-60
2023/05/16 04:49:25;;;;;;;6.72;1.55;;;20.20;78.90;;;;;;5051752;28;20120;-61
2023/05/16 04:51:51;;;;;;;7.25;1.48;;;20.30;81.60;;;;;;5063873;28;20052;-61
2023/05/16 04:54:17;;;;;;;4.18;1.17;;;;;;;;;;5063999;28;20084;-62
2023/05/16 04:56:42;;;;;;;5.65;1.67;;;20.20;81.70;;;;;;5061235;28;20044;-61
2023/05/16 04:59:08;;;;;;;4.75;1.50;;;20.30;80.00;;;;;;5071637;28;20045;-61
2023/05/16 05:01:34;;;;;;;6.28;1.60;;;20.40;81.80;;;;;;5066064;28;20056;-61
2023/05/16 05:04:00;;;;;;;6.10;1.50;;;20.40;81.60;;;;;;5072166;28;20120;-62
2023/05/16 05:06:26;;;;;;;6.97;1.67;;;20.30;81.50;;;;;;5072042;28;20044;-62
2023/05/16 05:08:52;;;;;;;5.40;1.50;;;20.50;81.60;;;;;;5072234;28;20482;-62
2023/05/16 05:11:18;;;;;;;4.18;1.52;;;20.40;81.30;;;;;;5069824;28;20060;-60
2023/05/16 05:13:44;;;;;;;4.72;1.40;;;;;;;;;;5061687;28;20045;-62
2023/05/16 05:16:10;;;;;;;4.40;1.38;;;20.50;81.50;;;;;;5052192;28;20037;-61
2023/05/16 05:18:36;;;;;;;7.75;2.22;;;20.60;81.50;;;;;;5052429;28;20041;-62
2023/05/16 05:21:02;;;;;;;4.82;1.50;;;;;;;;;;5052003;28;20084;-61
2023/05/16 05:23:29;;;;;;;7.72;1.92;;;;;;;;;;5067327;28;20055;-64
2023/05/16 05:25:54;;;;;;;6.70;1.52;;;20.50;81.40;;;;;;5071820;28;20448;-67
2023/05/16 05:28:21;;;;;;;6.38;1.50;;;;;;;;;;5071029;28;20052;-64
2023/05/16 05:30:47;;;;;;;4.80;1.40;;;20.40;81.20;;;;;;5066638;28;20098;-62
2023/05/16 05:33:15;;;;;;;6.55;1.50;;;20.50;81.30;;;;;;5055288;28;20770;-62
2023/05/16 05:35:41;;;;;;;4.75;1.48;;;20.50;81.20;;;;;;5062412;28;20087;-61
2023/05/16 05:38:07;;;;;;;5.50;1.73;;;;;;;;;;5057759;28;20072;-62
2023/05/16 05:40:33;;;;;;;7.32;1.52;;;20.60;81.20;;;;;;5054894;28;20041;-62
2023/05/16 05:42:59;;;;;;;4.63;1.33;;;;;;;;;;5061285;28;20117;-64
2023/05/16 05:45:25;;;;;;;8.30;2.30;;;20.50;81.10;;;;;;5061294;28;20094;-61
2023/05/16 05:47:51;;;;;;;5.93;1.50;;;;;;;;;;5053616;28;20597;-66
2023/05/16 05:50:17;;;;;;;4.13;1.20;;;20.60;81.00;;;;;;5053487;28;20128;-61
2023/05/16 05:52:43;;;;;;;5.40;1.63;;;20.70;81.40;;;;;;5053537;28;20056;-61
2023/05/16 05:55:09;;;;;;;6.45;1.20;;;;;;;;;;5073369;28;20049;-66
2023/05/16 05:57:35;;;;;;;6.30;1.77;;;20.80;78.10;;;;;;5074127;28;20045;-62
2023/05/16 06:00:03;;;;;;;5.07;2.20;;;21.10;80.90;;;;;;5055845;28;20459;-60
2023/05/16 06:02:30;;;;;;;4.85;1.38;;;;;;;;;;5054897;28;20107;-62
2023/05/16 06:04:55;;;;;;;4.45;1.40;;;21.60;80.90;;;;;;5073168;28;20041;-61
2023/05/16 06:07:21;;;;;;;5.28;1.60;;;21.40;80.60;;;;;;5074380;28;20040;-66
2023/05/16 06:09:47;;;;;;;5.00;1.35;;;21.60;80.60;;;;;;5070435;28;20052;-66
2023/05/16 06:12:13;;;;;;;5.57;1.50;;;21.60;80.30;;;;;;5072938;28;20103;-65
2023/05/16 06:14:38;;;;;;;5.25;1.63;;;21.90;80.30;;;;;;5071190;28;20135;-67
2023/05/16 06:17:05;;;;;;;6.20;1.95;;;;;;;;;;5071630;28;20055;-65
2023/05/16 06:19:30;;;;;;;3.42;1.15;;;22.10;80.30;;;;;;5063899;28;20115;-61
2023/05/16 06:21:57;;;;;;;4.15;1.20;;;;;;;;;;5058112;28;20557;-62
2023/05/16 06:24:23;;;;;;;5.28;1.38;;;21.90;80.10;;;;;;5071913;28;20075;-62
2023/05/16 06:26:49;;;;;;;3.80;1.23;;;21.80;80.10;;;;;;5070324;28;20079;-61
2023/05/16 06:29:16;;;;;;;4.70;1.60;;;;;;;;;;5061735;28;20151;-62
2023/05/16 06:31:42;;;;;;;2.90;1.25;;;22.10;80.40;;;;;;5055248;28;20041;-61
2023/05/16 06:34:08;;;;;;;5.00;1.50;;;22.10;80.30;;;;;;5053601;28;20528;-61
2023/05/16 06:36:33;;;;;;;4.18;1.30;;;22.00;80.10;;;;;;5054723;28;20044;-61
2023/05/16 06:38:59;;;;;;;3.97;1.35;;;22.30;80.20;;;;;;5067007;28;20064;-62
2023/05/16 06:41:25;;;;;;;5.35;1.42;;;22.30;80.00;;;;;;5071675;28;20044;-65
2023/05/16 06:43:51;;;;;;;7.50;1.55;;;;;;;;;;5067128;28;20060;-66
2023/05/16 06:46:17;;;;;;;3.72;1.60;;;22.60;78.80;;;;;;5053999;28;20399;-61
2023/05/16 06:48:43;;;;;;;5.70;1.60;;;22.60;79.50;;;;;;5067231;28;20070;-65
2023/05/16 06:51:09;;;;;;;7.32;1.85;;;22.70;79.40;;;;;;5072914;28;20070;-64
2023/05/16 06:53:35;;;;;;;5.35;1.75;;;22.70;79.40;;;;;;5058775;28;20037;-64
2023/05/16 06:56:03;;;;;;;4.07;1.23;;;;;;;;;;5063465;28;20084;-62
2023/05/16 06:58:28;;;;;;;5.53;1.88;;;23.10;79.40;;;;;;5065048;28;20090;-61
2023/05/16 07:00:54;;;;;;;4.35;1.70;;;22.70;79.00;;;;;;5062081;28;20045;-62
2023/05/16 07:03:20;;;;;;;5.80;1.80;;;23.10;79.10;;;;;;5054027;28;20047;-61
2023/05/16 07:05:46;;;;;;;5.75;1.85;;;23.10;79.10;;;;;;5053686;28;20398;-61
2023/05/16 07:08:12;;;;;;;5.47;1.35;;;;;;;;;;5058803;28;20090;-66
2023/05/16 07:10:41;;;;;;;3.80;1.30;;;23.30;78.80;;;;;;5067931;28;20076;-65
2023/05/16 07:13:07;;;;;;;6.03;1.50;;;23.50;78.80;;;;;;5060684;28;20046;-64
2023/05/16 07:15:33;;;;;;;6.05;1.42;;;;;;;;;;5071967;28;20032;-64
2023/05/16 07:17:58;;;;;;;5.75;1.60;;;23.60;78.60;;;;;;5063075;28;20110;-65
2023/05/16 07:20:24;;;;;;;3.33;1.33;;;23.40;78.50;;;;;;5066580;28;20195;-65
2023/05/16 07:22:50;;;;;;;3.65;1.27;;;23.70;78.60;;;;;;5068639;28;20055;-63
2023/05/16 07:25:17;;;;;;;4.68;1.17;;;23.50;78.30;;;;;;5059634;28;20037;-64
2023/05/16 07:27:43;;;;;;;3.53;1.35;;;23.70;78.40;;;;;;5069657;28;20131;-64
2023/05/16 07:30:13;;;;;;;4.68;1.40;;;23.70;75.00;;;;;;5062604;28;20033;-65
2023/05/16 07:32:39;;;;;;;5.70;1.50;;;;;;;;;;5064453;28;20048;-63
2023/05/16 07:35:05;;;;;;;5.80;1.33;;;23.80;78.50;;;;;;5067578;28;20041;-65
2023/05/16 07:37:31;;;;;;;4.40;1.65;;;23.70;78.50;;;;;;5065371;28;20131;-61
2023/05/16 07:39:57;;;;;;;4.22;1.13;;;23.70;78.40;;;;;;5068920;28;20166;-61
2023/05/16 07:42:23;;;;;;;4.95;1.77;;;23.60;78.20;;;;;;5069483;28;20378;-61
2023/05/16 07:44:49;;;;;;;4.30;1.30;;;;;;;;;;5060727;28;20351;-64
2023/05/16 07:47:15;;;;;;;5.00;1.67;;;23.90;78.10;;;;;;5060073;28;20045;-64
2023/05/16 07:49:41;;;;;;;6.10;1.52;;;23.80;78.00;;;;;;5067655;28;20075;-64
2023/05/16 07:52:07;;;;;;;4.88;1.52;;;23.70;78.00;;;;;;5052640;28;20390;-65
2023/05/16 07:54:33;;;;;;;4.75;1.63;;;23.70;78.10;;;;;;5052183;28;20033;-64
2023/05/16 07:57:00;;;;;;;5.75;1.73;;;;;;;;;;5066850;28;20563;-64
2023/05/16 07:59:25;;;;;;;5.25;1.40;;;23.60;78.20;;;;;;5053689;28;20037;-67
2023/05/16 08:01:51;;;;;;;6.07;1.77;;;23.30;78.30;;;;;;5055258;28;20059;-67
2023/05/16 08:04:17;;;;;;;5.07;1.60;;;23.40;78.60;;;;;;5067374;28;20044;-66
2023/05/16 08:06:43;;;;;;;9.40;1.60;;;23.40;78.60;;;;;;5061428;28;20095;-66
2023/05/16 08:09:08;;;;;;;5.57;1.50;;;23.30;78.40;;;;;;5069097;28;20124;-65
2023/05/16 08:11:35;;;;;;;4.32;1.60;;;23.30;78.30;;;;;;5071931;28;20106;-65
2023/05/16 08:14:00;;;;;;;6.70;1.70;;;23.40;78.30;;;;;;5054464;28;20144;-65
2023/05/16 08:16:26;;;;;;;7.70;1.35;;;23.60;78.30;;;;;;5053995;28;20070;-65
2023/05/16 08:18:52;;;;;;;5.70;1.50;;;23.40;78.00;;;;;;5069660;28;21004;-65
2023/05/16 08:21:18;;;;;;;5.05;1.60;;;23.40;78.10;;;;;;5054930;28;20041;-65
2023/05/16 08:23:44;;;;;;;5.72;1.77;;;23.50;78.30;;;;;;5052683;28;20060;-65
2023/05/16 08:26:10;;;;;;;4.43;1.52;;;23.40;78.40;;;;;;5065019;28;20048;-66
2023/05/16 08:28:36;;;;;;;4.97;1.42;;;;;;;;;;5071115;28;20048;-65
2023/05/16 08:31:02;;;;;;;6.45;1.67;;;23.40;78.50;;;;;;5069876;28;20036;-65
2023/05/16 08:33:28;;;;;;;3.95;1.45;;;23.40;78.60;;;;;;5064537;28;20033;-65
2023/05/16 08:35:54;;;;;;;5.75;1.60;;;23.40;78.60;;;;;;5063970;28;20055;-64
2023/05/16 08:38:20;;;;;;;4.75;1.48;;;;;;;;;;5060241;28;20057;-65
2023/05/16 08:40:46;;;;;;;5.72;1.70;;;23.40;78.60;;;;;;5057648;28;20101;-65
2023/05/16 08:43:12;;;;;;;7.10;1.95;;;23.60;78.50;;;;;;5063797;28;20080;-66
2023/05/16 08:45:39;;;;;;;5.35;1.90;;;23.50;78.50;;;;;;5059932;28;20045;-65
2023/05/16 08:48:05;;;;;;;7.47;1.90;;;;;;;;;;5051376;28;20044;-65
2023/05/16 08:50:31;;;;;;;5.28;1.60;;;23.60;78.20;;;;;;5067005;28;20509;-65
2023/05/16 08:52:57;;;;;;;5.93;1.80;;;23.50;78.20;;;;;;5057570;28;20057;-66
2023/05/16 08:55:23;;;;;;;5.65;1.45;;;23.50;78.40;;;;;;5068723;28;20049;-64
2023/05/16 08:57:52;;;;;;;6.65;1.60;;;23.30;78.20;;;;;;5070955;28;20041;-66
2023/05/16 09:00:18;;;;;;;11.43;2.03;;;23.50;78.40;;;;;;5055544;28;20123;-65
2023/05/16 09:02:44;;;;;;;5.57;1.45;;;23.40;78.40;;;;;;5071744;28;20409;-64
2023/05/16 09:05:11;;;;;;;5.15;1.70;;;23.70;78.40;;;;;;5066601;28;20045;-65
2023/05/16 09:07:37;;;;;;;7.53;1.75;;;23.40;78.20;;;;;;5070469;28;20049;-65
2023/05/16 09:10:05;;;;;;;3.22;1.30;;;23.50;78.30;;;;;;5059811;28;20049;-65
2023/05/16 09:12:34;;;;;;;3.97;1.38;;;23.20;78.10;;;;;;5059486;28;20060;-65
2023/05/16 09:15:04;;;;;;;5.20;1.70;;;23.20;78.30;;;;;;5068548;28;20041;-62
2023/05/16 09:17:37;;;;;;;6.50;1.92;;;23.40;78.50;;;;;;5064238;28;20036;-65
2023/05/16 09:20:12;;;;;;;;;;;23.20;76.00;;;;;;5061324;28;20045;-65
2023/05/16 09:22:39;;;;;;;15.85;2.22;;;23.40;78.10;;;;;;5057730;28;19924;-61
2023/05/16 09:25:06;;;;;;;15.60;2.65;;;23.50;74.70;;;;;;5060150;28;20076;-65
2023/05/16 09:27:32;;;;;;;16.95;2.92;;;;;;;;;;5072379;28;20044;-64
2023/05/16 09:29:58;;;;;;;9.95;2.35;;;23.40;78.30;;;;;;5062670;28;20409;-65
2023/05/16 09:32:24;;;;;;;11.60;2.20;;;23.20;78.30;;;;;;5068697;28;20037;-65
2023/05/16 09:34:51;;;;;;;11.38;2.38;;;23.20;78.20;;;;;;5071383;28;20135;-65
2023/05/16 09:37:18;;;;;;;8.40;2.15;;;;;;;;;;5056040;28;20037;-65
2023/05/16 09:39:51;;;;;;;9.93;2.45;;;23.30;74.80;;;;;;5054598;28;20077;-65
2023/05/16 09:42:18;;;;;;;12.60;2.30;;;23.20;78.10;;;;;;5061189;28;20167;-63
2023/05/16 09:44:51;;;;;;;9.98;2.20;;;23.10;73.50;;;;;;5060403;28;20053;-62
2023/05/16 09:47:17;;;;;;;7.07;2.15;;;23.30;78.20;;;;;;5056718;28;20080;-62
2023/05/16 09:49:44;;;;;;;7.55;1.70;;;23.10;78.10;;;;;;5063837;28;20147;-61
2023/05/16 09:52:10;;;;;;;6.97;1.73;;;;;;;;;;5067716;28;20053;-66
2023/05/16 09:54:36;;;;;;;8.65;2.22;;;23.10;78.10;;;;;;5070369;28;20143;-60
2023/05/16 09:57:01;;;;;;;7.65;2.03;;;23.10;78.40;;;;;;5073101;28;20062;-64
2023/05/16 09:59:28;;;;;;;9.25;1.83;;;23.20;78.60;;;;;;5073352;28;20048;-64
2023/05/16 10:01:56;;;;;;;10.95;1.95;;;23.10;78.50;;;;;;5057339;28;20078;-65
2023/05/16 10:04:22;;;;;;;9.02;1.80;;;;;;;;;;5061217;28;20049;-65
2023/05/16 10:06:48;;;;;;;15.57;2.67;;;;;;;;;;5071679;28;20048;-65
2023/05/16 10:09:14;;;;;;;6.32;1.67;;;23.00;78.40;;;;;;5064876;28;20052;-66
2023/05/16 10:11:41;;;;;;;5.70;1.67;;;22.90;75.70;;;;;;5061780;28;20057;-66
2023/05/16 10:14:08;;;;;;;7.82;1.58;;;23.10;78.60;;;;;;5062567;28;20087;-66
2023/05/16 10:16:34;;;;;;;7.95;2.22;;;22.90;78.50;;;;;;5068509;28;20046;-61
2023/05/16 10:19:01;;;;;;;10.20;2.20;;;22.80;76.20;;;;;;5072651;28;20090;-64
2023/05/16 10:21:28;;;;;;;9.88;2.00;;;22.90;78.50;;;;;;5069572;28;20051;-66
2023/05/16 10:23:55;;;;;;;15.55;2.70;;;23.20;78.70;;;;;;5069687;28;20402;-66
2023/05/16 10:26:21;;;;;;;11.30;1.98;;;23.00;78.60;;;;;;5061215;28;20064;-61
2023/05/16 10:28:47;;;;;;;14.20;2.78;;;23.10;78.60;;;;;;5068531;28;20127;-62
2023/05/16 10:31:14;;;;;;;9.27;2.10;;;23.20;78.60;;;;;;5071975;28;20068;-61
2023/05/16 10:33:40;;;;;;;9.00;2.10;;;22.90;78.60;;;;;;5059344;28;20453;-62
2023/05/16 10:36:10;;;;;;;20.50;2.47;;;23.00;78.60;;;;;;5058142;28;20060;-61
2023/05/16 10:38:36;;;;;;;10.23;2.58;;;23.30;78.90;;;;;;5055917;28;20056;-62
2023/05/16 10:41:02;;;;;;;13.85;2.30;;;23.10;78.50;;;;;;5071496;28;20139;-61
2023/05/16 10:43:29;;;;;;;15.25;2.50;;;22.90;78.60;;;;;;5072831;28;20123;-61
2023/05/16 10:46:22;;;;;;;12.38;2.88;;;23.10;78.50;;;;;;5063491;28;20045;-63
2023/05/16 10:48:47;;;;;;;19.40;3.33;;;23.00;78.50;;;;;;5065437;28;20049;-65
2023/05/16 10:51:22;;;;;;;9.35;2.35;;;23.10;78.60;;;;;;5056875;28;20048;-65
2023/05/16 10:53:51;;;;;;;13.82;2.80;;;22.80;78.40;;;;;;5062841;28;20044;-65
2023/05/16 10:56:21;;;;;;;16.77;2.58;;;22.90;75.50;;;;;;5054271;28;20558;-66
2023/05/16 10:58:47;;;;;;;10.32;2.25;;;23.10;78.00;;;;;;5064202;28;20052;-66
2023/05/16 11:01:34;;;;;;;6.20;1.70;;;22.90;76.30;;;;;;5050428;28;20132;-61
2023/05/16 11:04:05;;;;;;;9.55;1.63;;;23.00;78.70;;;;;;5054579;28;20037;-64
2023/05/16 11:06:33;;;;;;;11.88;1.90;;;23.10;78.80;;;;;;5067108;28;20041;-63
2023/05/16 11:09:05;;;;;;;6.72;1.80;;;22.90;78.60;;;;;;5058227;28;20036;-64
2023/05/16 11:11:46;;;;;;;9.27;2.05;;;22.70;78.40;;;;;;5054761;28;20154;-63
2023/05/16 11:14:42;;;;;;;9.38;2.13;;;22.80;78.70;;;;;;5053202;28;20045;-64
2023/05/16 11:17:38;;;;;;;5.13;1.58;;;22.90;74.90;;;;;;5036435;28;20060;-64
2023/05/16 11:20:04;;;;;;;6.50;1.60;;;22.90;78.60;;;;;;5052102;28;20063;-65
2023/05/16 11:22:34;;;;;;;6.75;1.48;;;22.80;78.80;;;;;;5055468;28;20040;-64
2023/05/16 11:25:00;;;;;;;4.88;1.55;;;22.90;78.70;;;;;;5051677;28;20402;-62
2023/05/16 11:27:27;;;;;;;5.88;1.60;;;22.90;78.80;;;;;;5068181;28;20045;-63
2023/05/16 11:29:55;;;;;;;5.43;1.45;;;22.90;78.60;;;;;;5072871;28;20093;-64
2023/05/16 11:32:21;;;;;;;7.03;2.17;;;22.70;78.40;;;;;;5070985;28;20044;-64
2023/05/16 11:34:47;;;;;;;6.15;1.55;;;22.90;78.50;;;;;;5071080;28;20063;-62
2023/05/16 11:37:14;;;;;;;5.53;1.67;;;23.00;78.50;;;;;;5070423;28;20048;-66
2023/05/16 11:39:40;;;;;;;6.97;1.42;;;22.80;78.40;;;;;;5072691;28;20132;-66
2023/05/16 11:42:06;;;;;;;4.15;1.50;;;23.00;78.40;;;;;;5070315;28;20079;-66
2023/05/16 11:44:32;;;;;;;7.05;1.73;;;22.90;78.40;;;;;;5056927;28;20033;-66
2023/05/16 11:47:01;;;;;;;5.47;1.35;;;23.10;78.70;;;;;;5053348;28;20040;-65
2023/05/16 11:49:27;;;;;;;6.57;1.73;;;23.10;78.60;;;;;;5053441;28;20052;-66
2023/05/16 11:51:56;;;;;;;6.05;1.88;;;23.10;78.70;;;;;;5052650;28;20453;-66
2023/05/16 11:54:23;;;;;;;5.85;1.60;;;22.90;78.60;;;;;;5057925;28;20053;-65
2023/05/16 11:56:49;;;;;;;15.43;1.83;;;23.00;78.50;;;;;;5055730;28;20040;-65
2023/05/16 11:59:15;;;;;;;8.13;1.85;;;23.00;77.90;;;;;;5050684;28;20084;-61
2023/05/16 12:01:41;;;;;;;19.88;2.65;;;23.10;78.90;;;;;;5061547;28;20210;-61
2023/05/16 12:04:11;;;;;;;13.20;2.15;;;23.10;78.60;;;;;;5062610;28;20057;-61
2023/05/16 12:06:42;;;;;;;13.63;2.10;;;23.20;78.90;;;;;;5063813;28;20076;-61
2023/05/16 12:09:11;;;;;;;9.63;2.80;;;23.00;78.70;;;;;;5059931;28;20037;-60
2023/05/16 12:11:37;;;;;;;8.60;1.92;;;23.10;78.70;;;;;;5055209;28;20494;-61
2023/05/16 12:14:06;;;;;;;16.45;2.10;;;23.20;78.90;;;;;;5063947;28;20044;-61
2023/05/16 12:16:32;;;;;;;7.88;1.60;;;23.10;78.70;;;;;;5060284;28;20045;-61
2023/05/16 12:18:59;;;;;;;12.32;2.00;;;;;;;;;;5067777;28;20048;-65
2023/05/16 12:21:25;;;;;;;7.70;1.83;;;23.10;78.80;;;;;;5054369;28;20033;-60
2023/05/16 12:23:54;;;;;;;6.30;2.05;;;23.20;76.70;;;;;;5053672;28;20148;-61
2023/05/16 12:26:31;;;;;;;10.05;2.10;;;23.00;78.80;;;;;;5057414;28;20119;-61
2023/05/16 12:28:59;;;;;;;10.25;2.10;;;23.10;78.90;;;;;;5072736;28;20052;-61
2023/05/16 12:31:25;;;;;;;7.05;2.20;;;22.10;74.30;;;;;;5072521;28;20048;-61
2023/05/16 12:33:54;;;;;;;4.63;1.60;;;23.10;78.70;;;;;;5067377;28;20529;-60
2023/05/16 12:36:21;;;;;;;6.55;1.63;;;23.20;78.80;;;;;;5063046;28;20075;-61
2023/05/16 12:38:47;;;;;;;3.70;1.63;;;23.30;78.90;;;;;;5054857;28;20056;-60
2023/05/16 12:41:20;;;;;;;6.30;1.98;;;23.20;78.80;;;;;;5057107;28;20051;-62
2023/05/16 12:43:47;;;;;;;5.28;1.52;;;23.20;79.00;;;;;;5062116;28;20487;-65
2023/05/16 12:46:13;;;;;;;5.43;1.80;;;23.00;78.60;;;;;;5054817;28;20052;-62
2023/05/16 12:48:40;;;;;;;6.50;1.80;;;23.30;78.80;;;;;;5073026;28;20052;-61
2023/05/16 12:51:16;;;;;;;7.20;1.45;;;23.10;78.80;;;;;;5074716;28;20036;-62
2023/05/16 12:53:44;;;;;;;8.48;1.70;;;23.20;78.70;;;;;;5070692;28;20052;-63
2023/05/16 12:56:10;;;;;;;5.95;1.60;;;23.30;78.90;;;;;;5074644;28;20033;-61
2023/05/16 12:58:37;;;;;;;5.18;1.50;;;23.20;78.90;;;;;;5072527;28;20040;-63
2023/05/16 13:01:03;;;;;;;11.75;1.98;;;23.10;78.80;;;;;;5074875;28;20103;-61
2023/05/16 13:03:29;;;;;;;9.07;1.98;;;23.20;78.80;;;;;;5073851;28;20057;-61
2023/05/16 13:05:55;;;;;;;9.20;2.08;;;23.20;78.80;;;;;;5074047;28;20054;-63